sensor_id;sensor_type;location;lat;lon;timestamp;temperature;humidity
17948;DHT22;9099;47.958;11.366;2022-07-29T00:01:32;20.40;99.90
17948;DHT22;9099;47.958;11.366;2022-07-29T00:03:58;20.40;99.90
17948;DHT22;9099;47.958;11.366;2022-07-29T00:06:25;20.40;99.90
17948;DHT22;9099;47.958;11.366;2022-07-29T00:08:52;20.40;99.90
17948;DHT22;9099;47.958;11.366;2022-07-29T00:11:19;20.40;99.90
17948;DHT22;9099;47.958;11.366;2022-07-29T00:13:46;20.50;99.90
17948;DHT22;9099;47.958;11.366;2022-07-29T00:16:13;20.50;99.90
17948;DHT22;9099;47.958;11.366;2022-07-29T00:18:41;20.50;99.90
17948;DHT22;9099;47.958;11.366;2022-07-29T00:21:08;20.40;99.90
17948;DHT22;9099;47.958;11.366;2022-07-29T00:23:35;20.30;99.90
17948;DHT22;9099;47.958;11.366;2022-07-29T00:26:02;20.30;99.90
17948;DHT22;9099;47.958;11.366;2022-07-29T00:28:29;20.40;99.90
17948;DHT22;9099;47.958;11.366;2022-07-29T00:30:56;20.40;99.90
17948;DHT22;9099;47.958;11.366;2022-07-29T00:33:23;20.30;99.90
17948;DHT22;9099;47.958;11.366;2022-07-29T00:35:51;20.20;99.90
17948;DHT22;9099;47.958;11.366;2022-07-29T00:38:19;20.10;99.90
17948;DHT22;9099;47.958;11.366;2022-07-29T00:40:46;20.00;99.90
17948;DHT22;9099;47.958;11.366;2022-07-29T00:43:14;20.00;99.90
17948;DHT22;9099;47.958;11.366;2022-07-29T00:45:41;20.10;99.90
17948;DHT22;9099;47.958;11.366;2022-07-29T00:48:08;20.10;99.90
17948;DHT22;9099;47.958;11.366;2022-07-29T00:50:36;20.00;99.90
17948;DHT22;9099;47.958;11.366;2022-07-29T00:53:06;20.00;99.90
17948;DHT22;9099;47.958;11.366;2022-07-29T00:55:33;20.10;99.90
17948;DHT22;9099;47.958;11.366;2022-07-29T00:58:01;20.10;99.90
17948;DHT22;9099;47.958;11.366;2022-07-29T01:00:28;20.00;99.90
17948;DHT22;9099;47.958;11.366;2022-07-29T01:02:55;20.00;99.90
17948;DHT22;9099;47.958;11.366;2022-07-29T01:05:24;19.90;99.90
17948;DHT22;9099;47.958;11.366;2022-07-29T01:07:54;19.90;99.90
17948;DHT22;9099;47.958;11.366;2022-07-29T01:10:23;19.90;99.90
17948;DHT22;9099;47.958;11.366;2022-07-29T01:12:51;19.90;99.90
17948;DHT22;9099;47.958;11.366;2022-07-29T01:15:19;19.90;99.90
17948;DHT22;9099;47.958;11.366;2022-07-29T01:17:51;19.90;99.90
17948;DHT22;9099;47.958;11.366;2022-07-29T01:20:25;19.90;99.90
17948;DHT22;9099;47.958;11.366;2022-07-29T01:23:11;19.90;99.90
17948;DHT22;9099;47.958;11.366;2022-07-29T01:25:56;19.90;99.90
17948;DHT22;9099;47.958;11.366;2022-07-29T01:28:51;19.90;99.90
17948;DHT22;9099;47.958;11.366;2022-07-29T01:31:28;19.90;99.90
17948;DHT22;9099;47.958;11.366;2022-07-29T01:34:01;19.90;99.90
17948;DHT22;9099;47.958;11.366;2022-07-29T01:36:32;19.90;99.90
17948;DHT22;9099;47.958;11.366;2022-07-29T01:39:05;19.80;99.90
17948;DHT22;9099;47.958;11.366;2022-07-29T01:41:34;19.60;99.90
17948;DHT22;9099;47.958;11.366;2022-07-29T01:44:12;19.60;99.90
17948;DHT22;9099;47.958;11.366;2022-07-29T01:46:46;19.60;99.90
17948;DHT22;9099;47.958;11.366;2022-07-29T01:49:18;19.60;99.90
17948;DHT22;9099;47.958;11.366;2022-07-29T01:51:50;19.50;99.90
17948;DHT22;9099;47.958;11.366;2022-07-29T01:54:20;19.40;99.90
17948;DHT22;9099;47.958;11.366;2022-07-29T01:56:51;19.40;99.90
17948;DHT22;9099;47.958;11.366;2022-07-29T01:59:20;19.40;99.90
17948;DHT22;9099;47.958;11.366;2022-07-29T02:01:50;19.50;99.90
17948;DHT22;9099;47.958;11.366;2022-07-29T02:04:19;19.40;99.90
17948;DHT22;9099;47.958;11.366;2022-07-29T02:06:48;19.30;99.90
17948;DHT22;9099;47.958;11.366;2022-07-29T02:09:16;19.30;99.90
17948;DHT22;9099;47.958;11.366;2022-07-29T02:11:48;19.20;99.90
17948;DHT22;9099;47.958;11.366;2022-07-29T02:14:20;19.20;99.90
17948;DHT22;9099;47.958;11.366;2022-07-29T02:16:50;19.20;99.90
17948;DHT22;9099;47.958;11.366;2022-07-29T02:19:20;19.20;99.90
17948;DHT22;9099;47.958;11.366;2022-07-29T02:21:48;19.10;99.90
17948;DHT22;9099;47.958;11.366;2022-07-29T02:24:18;19.10;99.90
17948;DHT22;9099;47.958;11.366;2022-07-29T02:26:46;19.00;99.90
17948;DHT22;9099;47.958;11.366;2022-07-29T02:29:15;18.90;99.90
17948;DHT22;9099;47.958;11.366;2022-07-29T02:31:46;18.80;99.90
17948;DHT22;9099;47.958;11.366;2022-07-29T02:34:15;18.90;99.90
17948;DHT22;9099;47.958;11.366;2022-07-29T02:36:44;18.90;99.90
17948;DHT22;9099;47.958;11.366;2022-07-29T02:39:12;18.80;99.90
17948;DHT22;9099;47.958;11.366;2022-07-29T02:41:42;18.80;99.90
17948;DHT22;9099;47.958;11.366;2022-07-29T02:44:12;18.80;99.90
17948;DHT22;9099;47.958;11.366;2022-07-29T02:46:45;18.80;99.90
17948;DHT22;9099;47.958;11.366;2022-07-29T02:49:16;18.70;99.90
17948;DHT22;9099;47.958;11.366;2022-07-29T02:51:46;18.70;99.90
17948;DHT22;9099;47.958;11.366;2022-07-29T02:54:22;18.80;99.90
17948;DHT22;9099;47.958;11.366;2022-07-29T02:56:51;18.70;99.90
17948;DHT22;9099;47.958;11.366;2022-07-29T02:59:24;18.80;99.90
17948;DHT22;9099;47.958;11.366;2022-07-29T03:01:55;18.80;99.90
17948;DHT22;9099;47.958;11.366;2022-07-29T03:04:26;18.90;99.90
17948;DHT22;9099;47.958;11.366;2022-07-29T03:06:55;18.90;99.90
17948;DHT22;9099;47.958;11.366;2022-07-29T03:09:25;18.80;99.90
17948;DHT22;9099;47.958;11.366;2022-07-29T03:11:53;18.80;99.90
17948;DHT22;9099;47.958;11.366;2022-07-29T03:14:20;18.70;99.90
17948;DHT22;9099;47.958;11.366;2022-07-29T03:16:49;18.60;99.90
17948;DHT22;9099;47.958;11.366;2022-07-29T03:19:19;18.60;99.90
17948;DHT22;9099;47.958;11.366;2022-07-29T03:21:47;18.50;99.90
17948;DHT22;9099;47.958;11.366;2022-07-29T03:24:30;18.50;99.90
17948;DHT22;9099;47.958;11.366;2022-07-29T03:26:58;18.50;99.90
17948;DHT22;9099;47.958;11.366;2022-07-29T03:29:25;18.60;99.90
17948;DHT22;9099;47.958;11.366;2022-07-29T03:31:52;18.60;99.90
17948;DHT22;9099;47.958;11.366;2022-07-29T03:34:21;18.50;99.90
17948;DHT22;9099;47.958;11.366;2022-07-29T03:36:48;18.50;99.90
17948;DHT22;9099;47.958;11.366;2022-07-29T03:39:18;18.50;99.90
17948;DHT22;9099;47.958;11.366;2022-07-29T03:41:48;18.40;99.90
17948;DHT22;9099;47.958;11.366;2022-07-29T03:44:17;18.30;99.90
17948;DHT22;9099;47.958;11.366;2022-07-29T03:46:45;18.40;99.90
17948;DHT22;9099;47.958;11.366;2022-07-29T03:49:14;18.40;99.90
17948;DHT22;9099;47.958;11.366;2022-07-29T03:51:43;18.40;99.90
17948;DHT22;9099;47.958;11.366;2022-07-29T03:54:11;18.50;99.90
17948;DHT22;9099;47.958;11.366;2022-07-29T03:56:40;18.40;99.90
17948;DHT22;9099;47.958;11.366;2022-07-29T03:59:09;18.30;99.90
17948;DHT22;9099;47.958;11.366;2022-07-29T04:01:37;18.20;99.90
17948;DHT22;9099;47.958;11.366;2022-07-29T04:04:05;18.30;99.90
17948;DHT22;9099;47.958;11.366;2022-07-29T04:06:38;18.30;99.90
17948;DHT22;9099;47.958;11.366;2022-07-29T04:09:07;18.30;99.90
17948;DHT22;9099;47.958;11.366;2022-07-29T04:11:34;18.30;99.90
17948;DHT22;9099;47.958;11.366;2022-07-29T04:14:02;18.40;99.90
17948;DHT22;9099;47.958;11.366;2022-07-29T04:16:29;18.50;99.90
17948;DHT22;9099;47.958;11.366;2022-07-29T04:18:55;18.50;99.90
17948;DHT22;9099;47.958;11.366;2022-07-29T04:21:22;18.50;99.90
17948;DHT22;9099;47.958;11.366;2022-07-29T04:23:49;18.50;99.90
17948;DHT22;9099;47.958;11.366;2022-07-29T04:26:18;18.50;99.90
17948;DHT22;9099;47.958;11.366;2022-07-29T04:28:46;18.50;99.90
17948;DHT22;9099;47.958;11.366;2022-07-29T04:31:13;18.50;99.90
17948;DHT22;9099;47.958;11.366;2022-07-29T04:33:40;18.50;99.90
17948;DHT22;9099;47.958;11.366;2022-07-29T04:36:06;18.50;99.90
17948;DHT22;9099;47.958;11.366;2022-07-29T04:38:33;18.50;99.90
17948;DHT22;9099;47.958;11.366;2022-07-29T04:41:00;18.70;99.90
17948;DHT22;9099;47.958;11.366;2022-07-29T04:43:28;18.70;99.90
17948;DHT22;9099;47.958;11.366;2022-07-29T04:45:55;18.70;99.90
17948;DHT22;9099;47.958;11.366;2022-07-29T04:48:22;18.80;99.90
17948;DHT22;9099;47.958;11.366;2022-07-29T04:50:49;18.90;99.90
17948;DHT22;9099;47.958;11.366;2022-07-29T04:53:16;19.00;99.90
17948;DHT22;9099;47.958;11.366;2022-07-29T04:55:43;19.00;99.90
17948;DHT22;9099;47.958;11.366;2022-07-29T04:58:10;18.90;99.90
17948;DHT22;9099;47.958;11.366;2022-07-29T05:00:39;18.90;99.90
17948;DHT22;9099;47.958;11.366;2022-07-29T05:03:06;18.90;99.90
17948;DHT22;9099;47.958;11.366;2022-07-29T05:05:33;19.00;99.90
17948;DHT22;9099;47.958;11.366;2022-07-29T05:07:59;19.10;99.90
17948;DHT22;9099;47.958;11.366;2022-07-29T05:10:26;19.20;99.90
17948;DHT22;9099;47.958;11.366;2022-07-29T05:12:54;19.20;99.90
17948;DHT22;9099;47.958;11.366;2022-07-29T05:15:21;19.30;99.90
17948;DHT22;9099;47.958;11.366;2022-07-29T05:17:49;19.50;99.90
17948;DHT22;9099;47.958;11.366;2022-07-29T05:20:16;19.60;99.90
17948;DHT22;9099;47.958;11.366;2022-07-29T05:22:43;19.70;99.90
17948;DHT22;9099;47.958;11.366;2022-07-29T05:25:10;19.80;99.90
17948;DHT22;9099;47.958;11.366;2022-07-29T05:27:37;19.90;99.90
17948;DHT22;9099;47.958;11.366;2022-07-29T05:30:05;20.10;99.90
17948;DHT22;9099;47.958;11.366;2022-07-29T05:32:33;20.20;99.90
17948;DHT22;9099;47.958;11.366;2022-07-29T05:35:01;20.40;99.90
17948;DHT22;9099;47.958;11.366;2022-07-29T05:37:28;20.50;99.90
17948;DHT22;9099;47.958;11.366;2022-07-29T05:39:55;20.70;99.90
17948;DHT22;9099;47.958;11.366;2022-07-29T05:42:22;20.70;99.90
17948;DHT22;9099;47.958;11.366;2022-07-29T05:44:49;21.00;99.90
17948;DHT22;9099;47.958;11.366;2022-07-29T05:47:16;21.00;99.90
17948;DHT22;9099;47.958;11.366;2022-07-29T05:49:43;21.20;99.90
17948;DHT22;9099;47.958;11.366;2022-07-29T05:52:13;21.40;99.90
17948;DHT22;9099;47.958;11.366;2022-07-29T05:54:40;21.60;99.90
17948;DHT22;9099;47.958;11.366;2022-07-29T05:57:07;22.00;99.90
17948;DHT22;9099;47.958;11.366;2022-07-29T05:59:35;22.20;99.90
17948;DHT22;9099;47.958;11.366;2022-07-29T06:02:02;22.60;99.90
17948;DHT22;9099;47.958;11.366;2022-07-29T06:04:30;23.00;99.90
17948;DHT22;9099;47.958;11.366;2022-07-29T06:06:57;23.60;99.90
17948;DHT22;9099;47.958;11.366;2022-07-29T06:09:25;24.00;99.90
17948;DHT22;9099;47.958;11.366;2022-07-29T06:11:52;24.30;99.90
17948;DHT22;9099;47.958;11.366;2022-07-29T06:14:19;24.50;99.90
17948;DHT22;9099;47.958;11.366;2022-07-29T06:16:46;24.60;99.90
17948;DHT22;9099;47.958;11.366;2022-07-29T06:19:13;24.60;99.90
17948;DHT22;9099;47.958;11.366;2022-07-29T06:21:41;24.70;99.90
17948;DHT22;9099;47.958;11.366;2022-07-29T06:24:09;24.70;99.90
17948;DHT22;9099;47.958;11.366;2022-07-29T06:26:38;24.70;99.90
17948;DHT22;9099;47.958;11.366;2022-07-29T06:29:05;24.70;99.90
17948;DHT22;9099;47.958;11.366;2022-07-29T06:31:32;24.50;99.90
17948;DHT22;9099;47.958;11.366;2022-07-29T06:33:59;24.20;99.90
17948;DHT22;9099;47.958;11.366;2022-07-29T06:36:26;24.00;99.90
17948;DHT22;9099;47.958;11.366;2022-07-29T06:38:52;23.80;99.90
17948;DHT22;9099;47.958;11.366;2022-07-29T06:41:19;23.70;99.90
17948;DHT22;9099;47.958;11.366;2022-07-29T06:43:48;23.60;99.90
17948;DHT22;9099;47.958;11.366;2022-07-29T06:46:18;23.60;99.90
17948;DHT22;9099;47.958;11.366;2022-07-29T06:48:46;23.60;99.90
17948;DHT22;9099;47.958;11.366;2022-07-29T06:51:13;23.70;99.90
17948;DHT22;9099;47.958;11.366;2022-07-29T06:53:41;23.60;99.90
17948;DHT22;9099;47.958;11.366;2022-07-29T06:56:09;23.60;99.90
17948;DHT22;9099;47.958;11.366;2022-07-29T06:58:39;23.60;99.90
17948;DHT22;9099;47.958;11.366;2022-07-29T07:01:07;23.70;99.90
17948;DHT22;9099;47.958;11.366;2022-07-29T07:03:34;23.80;99.90
17948;DHT22;9099;47.958;11.366;2022-07-29T07:06:01;23.90;99.90
17948;DHT22;9099;47.958;11.366;2022-07-29T07:08:28;24.00;99.90
17948;DHT22;9099;47.958;11.366;2022-07-29T07:10:55;24.10;99.90
17948;DHT22;9099;47.958;11.366;2022-07-29T07:13:22;24.20;99.90
17948;DHT22;9099;47.958;11.366;2022-07-29T07:15:49;24.20;99.90
17948;DHT22;9099;47.958;11.366;2022-07-29T07:18:18;24.20;99.90
17948;DHT22;9099;47.958;11.366;2022-07-29T07:20:45;24.40;99.90
17948;DHT22;9099;47.958;11.366;2022-07-29T07:23:13;24.50;99.90
17948;DHT22;9099;47.958;11.366;2022-07-29T07:25:39;24.70;99.90
17948;DHT22;9099;47.958;11.366;2022-07-29T07:28:07;25.00;99.90
17948;DHT22;9099;47.958;11.366;2022-07-29T07:30:34;25.30;99.90
17948;DHT22;9099;47.958;11.366;2022-07-29T07:33:01;25.40;99.90
17948;DHT22;9099;47.958;11.366;2022-07-29T07:35:30;25.50;99.90
17948;DHT22;9099;47.958;11.366;2022-07-29T07:37:57;25.60;99.90
17948;DHT22;9099;47.958;11.366;2022-07-29T07:40:24;25.60;99.90
17948;DHT22;9099;47.958;11.366;2022-07-29T07:42:51;25.70;99.90
17948;DHT22;9099;47.958;11.366;2022-07-29T07:45:18;25.80;99.90
17948;DHT22;9099;47.958;11.366;2022-07-29T07:47:45;25.90;99.90
17948;DHT22;9099;47.958;11.366;2022-07-29T07:50:12;25.90;99.90
17948;DHT22;9099;47.958;11.366;2022-07-29T07:52:48;26.10;99.90
17948;DHT22;9099;47.958;11.366;2022-07-29T07:55:15;26.30;99.90
17948;DHT22;9099;47.958;11.366;2022-07-29T07:57:42;26.60;99.90
17948;DHT22;9099;47.958;11.366;2022-07-29T08:00:10;26.60;99.90
17948;DHT22;9099;47.958;11.366;2022-07-29T08:02:37;26.60;99.90
17948;DHT22;9099;47.958;11.366;2022-07-29T08:05:05;26.70;99.90
17948;DHT22;9099;47.958;11.366;2022-07-29T08:07:33;26.80;99.90
17948;DHT22;9099;47.958;11.366;2022-07-29T08:10:02;26.70;99.90
17948;DHT22;9099;47.958;11.366;2022-07-29T08:12:29;26.80;99.90
17948;DHT22;9099;47.958;11.366;2022-07-29T08:14:56;26.90;99.90
17948;DHT22;9099;47.958;11.366;2022-07-29T08:17:22;27.10;99.90
17948;DHT22;9099;47.958;11.366;2022-07-29T08:19:49;27.50;99.90
17948;DHT22;9099;47.958;11.366;2022-07-29T08:22:16;27.50;99.90
17948;DHT22;9099;47.958;11.366;2022-07-29T08:24:43;27.40;99.90
17948;DHT22;9099;47.958;11.366;2022-07-29T08:27:14;27.50;99.90
17948;DHT22;9099;47.958;11.366;2022-07-29T08:29:40;27.80;99.90
17948;DHT22;9099;47.958;11.366;2022-07-29T08:32:07;28.00;99.90
17948;DHT22;9099;47.958;11.366;2022-07-29T08:34:34;27.90;99.90
17948;DHT22;9099;47.958;11.366;2022-07-29T08:37:01;28.00;99.90
17948;DHT22;9099;47.958;11.366;2022-07-29T08:39:28;28.20;99.90
17948;DHT22;9099;47.958;11.366;2022-07-29T08:41:55;28.20;99.90
17948;DHT22;9099;47.958;11.366;2022-07-29T08:44:23;28.00;99.90
17948;DHT22;9099;47.958;11.366;2022-07-29T08:46:51;27.90;99.90
17948;DHT22;9099;47.958;11.366;2022-07-29T08:49:17;27.90;99.90
17948;DHT22;9099;47.958;11.366;2022-07-29T08:51:45;28.00;99.90
17948;DHT22;9099;47.958;11.366;2022-07-29T08:54:16;28.10;99.90
17948;DHT22;9099;47.958;11.366;2022-07-29T08:56:44;28.40;99.90
17948;DHT22;9099;47.958;11.366;2022-07-29T08:59:14;28.50;99.90
17948;DHT22;9099;47.958;11.366;2022-07-29T09:01:44;28.40;99.90
17948;DHT22;9099;47.958;11.366;2022-07-29T09:04:13;28.30;99.90
17948;DHT22;9099;47.958;11.366;2022-07-29T09:06:44;28.20;99.90
17948;DHT22;9099;47.958;11.366;2022-07-29T09:09:11;28.10;99.90
17948;DHT22;9099;47.958;11.366;2022-07-29T09:11:39;28.00;99.90
17948;DHT22;9099;47.958;11.366;2022-07-29T09:14:06;27.80;99.90
17948;DHT22;9099;47.958;11.366;2022-07-29T09:16:52;27.50;99.90
17948;DHT22;9099;47.958;11.366;2022-07-29T09:19:20;27.50;99.90
17948;DHT22;9099;47.958;11.366;2022-07-29T09:21:47;27.30;99.90
17948;DHT22;9099;47.958;11.366;2022-07-29T09:24:42;27.30;99.90
17948;DHT22;9099;47.958;11.366;2022-07-29T09:27:18;27.10;99.90
17948;DHT22;9099;47.958;11.366;2022-07-29T09:29:45;27.10;99.90
17948;DHT22;9099;47.958;11.366;2022-07-29T09:32:14;27.10;99.90
17948;DHT22;9099;47.958;11.366;2022-07-29T09:34:40;27.30;99.90
17948;DHT22;9099;47.958;11.366;2022-07-29T09:37:07;27.40;99.90
17948;DHT22;9099;47.958;11.366;2022-07-29T09:39:36;27.60;99.90
17948;DHT22;9099;47.958;11.366;2022-07-29T09:42:10;27.60;99.90
17948;DHT22;9099;47.958;11.366;2022-07-29T09:44:45;27.50;99.90
17948;DHT22;9099;47.958;11.366;2022-07-29T09:47:15;27.40;99.90
17948;DHT22;9099;47.958;11.366;2022-07-29T09:50:00;27.40;99.90
17948;DHT22;9099;47.958;11.366;2022-07-29T09:52:28;27.60;99.90
17948;DHT22;9099;47.958;11.366;2022-07-29T09:55:04;27.80;99.90
17948;DHT22;9099;47.958;11.366;2022-07-29T09:57:31;27.60;99.90
17948;DHT22;9099;47.958;11.366;2022-07-29T10:00:00;27.50;99.90
17948;DHT22;9099;47.958;11.366;2022-07-29T10:02:30;27.10;99.90
17948;DHT22;9099;47.958;11.366;2022-07-29T10:04:57;27.00;99.90
17948;DHT22;9099;47.958;11.366;2022-07-29T10:07:25;26.90;99.90
17948;DHT22;9099;47.958;11.366;2022-07-29T10:09:53;26.80;99.90
17948;DHT22;9099;47.958;11.366;2022-07-29T10:12:21;26.60;99.90
17948;DHT22;9099;47.958;11.366;2022-07-29T10:14:49;26.50;99.90
17948;DHT22;9099;47.958;11.366;2022-07-29T10:17:16;26.50;99.90
17948;DHT22;9099;47.958;11.366;2022-07-29T10:19:45;26.50;99.90
17948;DHT22;9099;47.958;11.366;2022-07-29T10:22:12;26.50;99.90
17948;DHT22;9099;47.958;11.366;2022-07-29T10:24:39;26.60;99.90
17948;DHT22;9099;47.958;11.366;2022-07-29T10:27:08;26.60;99.90
17948;DHT22;9099;47.958;11.366;2022-07-29T10:29:35;27.10;99.90
17948;DHT22;9099;47.958;11.366;2022-07-29T10:32:29;27.40;99.90
17948;DHT22;9099;47.958;11.366;2022-07-29T10:35:21;27.80;99.90
17948;DHT22;9099;47.958;11.366;2022-07-29T10:38:04;28.30;99.90
17948;DHT22;9099;47.958;11.366;2022-07-29T10:40:40;28.40;99.90
17948;DHT22;9099;47.958;11.366;2022-07-29T10:43:31;28.60;99.90
17948;DHT22;9099;47.958;11.366;2022-07-29T10:46:02;28.50;99.90
17948;DHT22;9099;47.958;11.366;2022-07-29T10:48:29;28.60;99.90
17948;DHT22;9099;47.958;11.366;2022-07-29T10:50:59;28.60;99.90
17948;DHT22;9099;47.958;11.366;2022-07-29T10:53:46;29.30;99.90
17948;DHT22;9099;47.958;11.366;2022-07-29T10:56:27;29.70;99.90
17948;DHT22;9099;47.958;11.366;2022-07-29T10:59:22;29.70;99.90
17948;DHT22;9099;47.958;11.366;2022-07-29T11:01:50;29.50;99.90
17948;DHT22;9099;47.958;11.366;2022-07-29T11:07:26;29.30;99.90
17948;DHT22;9099;47.958;11.366;2022-07-29T11:10:20;29.20;99.90
17948;DHT22;9099;47.958;11.366;2022-07-29T11:12:47;29.20;99.90
17948;DHT22;9099;47.958;11.366;2022-07-29T11:15:15;29.20;99.90
17948;DHT22;9099;47.958;11.366;2022-07-29T11:18:07;29.30;99.90
17948;DHT22;9099;47.958;11.366;2022-07-29T11:20:37;29.30;99.90
17948;DHT22;9099;47.958;11.366;2022-07-29T11:23:20;29.60;99.90
17948;DHT22;9099;47.958;11.366;2022-07-29T11:26:15;29.70;99.90
17948;DHT22;9099;47.958;11.366;2022-07-29T11:28:54;29.70;99.90
17948;DHT22;9099;47.958;11.366;2022-07-29T11:31:34;29.70;99.90
17948;DHT22;9099;47.958;11.366;2022-07-29T11:34:32;29.50;99.90
17948;DHT22;9099;47.958;11.366;2022-07-29T11:37:17;29.40;99.90
17948;DHT22;9099;47.958;11.366;2022-07-29T11:39:47;29.20;99.90
17948;DHT22;9099;47.958;11.366;2022-07-29T11:42:38;29.00;99.90
17948;DHT22;9099;47.958;11.366;2022-07-29T11:45:07;28.80;99.90
17948;DHT22;9099;47.958;11.366;2022-07-29T11:47:36;28.80;99.90
17948;DHT22;9099;47.958;11.366;2022-07-29T11:50:05;28.70;99.90
17948;DHT22;9099;47.958;11.366;2022-07-29T11:52:33;28.70;99.90
17948;DHT22;9099;47.958;11.366;2022-07-29T11:55:05;28.80;99.90
17948;DHT22;9099;47.958;11.366;2022-07-29T11:57:34;29.00;99.90
17948;DHT22;9099;47.958;11.366;2022-07-29T12:00:03;29.20;99.90
17948;DHT22;9099;47.958;11.366;2022-07-29T12:02:40;29.20;99.90
17948;DHT22;9099;47.958;11.366;2022-07-29T12:05:08;29.10;99.90
17948;DHT22;9099;47.958;11.366;2022-07-29T12:07:37;29.10;99.90
17948;DHT22;9099;47.958;11.366;2022-07-29T12:10:07;29.00;99.90
17948;DHT22;9099;47.958;11.366;2022-07-29T12:12:34;28.90;99.90
17948;DHT22;9099;47.958;11.366;2022-07-29T12:15:12;28.90;99.90
17948;DHT22;9099;47.958;11.366;2022-07-29T12:17:39;28.80;99.90
17948;DHT22;9099;47.958;11.366;2022-07-29T12:20:06;29.00;99.90
17948;DHT22;9099;47.958;11.366;2022-07-29T12:22:35;29.20;99.90
17948;DHT22;9099;47.958;11.366;2022-07-29T12:25:06;29.10;99.90
17948;DHT22;9099;47.958;11.366;2022-07-29T12:27:34;29.10;99.90
17948;DHT22;9099;47.958;11.366;2022-07-29T12:30:04;29.10;99.90
17948;DHT22;9099;47.958;11.366;2022-07-29T12:32:32;29.00;99.90
17948;DHT22;9099;47.958;11.366;2022-07-29T12:35:02;28.90;99.90
17948;DHT22;9099;47.958;11.366;2022-07-29T12:37:30;28.80;99.90
17948;DHT22;9099;47.958;11.366;2022-07-29T12:39:57;28.80;99.90
17948;DHT22;9099;47.958;11.366;2022-07-29T12:42:25;28.70;99.90
17948;DHT22;9099;47.958;11.366;2022-07-29T12:44:52;28.70;99.90
17948;DHT22;9099;47.958;11.366;2022-07-29T12:47:20;28.70;99.90
17948;DHT22;9099;47.958;11.366;2022-07-29T12:49:47;28.70;99.90
17948;DHT22;9099;47.958;11.366;2022-07-29T12:52:26;28.50;99.90
17948;DHT22;9099;47.958;11.366;2022-07-29T12:54:53;28.30;99.90
17948;DHT22;9099;47.958;11.366;2022-07-29T12:57:20;28.20;99.90
17948;DHT22;9099;47.958;11.366;2022-07-29T13:00:03;28.10;99.90
17948;DHT22;9099;47.958;11.366;2022-07-29T13:02:32;28.20;99.90
17948;DHT22;9099;47.958;11.366;2022-07-29T13:05:00;28.10;99.90
17948;DHT22;9099;47.958;11.366;2022-07-29T13:07:28;28.10;99.90
17948;DHT22;9099;47.958;11.366;2022-07-29T13:10:10;27.90;99.90
17948;DHT22;9099;47.958;11.366;2022-07-29T13:12:37;27.90;99.90
17948;DHT22;9099;47.958;11.366;2022-07-29T13:15:14;27.90;99.90
17948;DHT22;9099;47.958;11.366;2022-07-29T13:17:42;27.80;99.90
17948;DHT22;9099;47.958;11.366;2022-07-29T13:20:10;27.70;99.90
17948;DHT22;9099;47.958;11.366;2022-07-29T13:22:40;27.60;99.90
17948;DHT22;9099;47.958;11.366;2022-07-29T13:25:08;27.50;99.90
17948;DHT22;9099;47.958;11.366;2022-07-29T13:27:37;27.50;99.90
17948;DHT22;9099;47.958;11.366;2022-07-29T13:30:07;27.50;99.90
17948;DHT22;9099;47.958;11.366;2022-07-29T13:32:36;27.30;99.90
17948;DHT22;9099;47.958;11.366;2022-07-29T13:35:05;27.30;99.90
17948;DHT22;9099;47.958;11.366;2022-07-29T13:37:32;27.40;99.90
17948;DHT22;9099;47.958;11.366;2022-07-29T13:40:00;27.50;99.90
17948;DHT22;9099;47.958;11.366;2022-07-29T13:42:28;27.70;99.90
17948;DHT22;9099;47.958;11.366;2022-07-29T13:44:55;27.90;99.90
17948;DHT22;9099;47.958;11.366;2022-07-29T13:47:22;27.80;99.90
17948;DHT22;9099;47.958;11.366;2022-07-29T13:49:51;27.80;99.90
17948;DHT22;9099;47.958;11.366;2022-07-29T13:52:18;27.70;99.90
17948;DHT22;9099;47.958;11.366;2022-07-29T13:54:45;27.60;99.90
17948;DHT22;9099;47.958;11.366;2022-07-29T13:57:13;27.60;99.90
17948;DHT22;9099;47.958;11.366;2022-07-29T13:59:41;27.60;99.90
17948;DHT22;9099;47.958;11.366;2022-07-29T14:02:09;27.60;99.90
17948;DHT22;9099;47.958;11.366;2022-07-29T14:04:36;27.60;99.90
17948;DHT22;9099;47.958;11.366;2022-07-29T14:07:04;27.60;99.90
17948;DHT22;9099;47.958;11.366;2022-07-29T14:09:31;27.60;99.90
17948;DHT22;9099;47.958;11.366;2022-07-29T14:11:58;27.80;99.90
17948;DHT22;9099;47.958;11.366;2022-07-29T14:14:25;27.90;99.90
17948;DHT22;9099;47.958;11.366;2022-07-29T14:16:52;27.80;99.90
17948;DHT22;9099;47.958;11.366;2022-07-29T14:19:19;27.70;99.90
17948;DHT22;9099;47.958;11.366;2022-07-29T14:21:46;27.70;99.90
17948;DHT22;9099;47.958;11.366;2022-07-29T14:24:14;27.60;99.90
17948;DHT22;9099;47.958;11.366;2022-07-29T14:26:41;27.50;99.90
17948;DHT22;9099;47.958;11.366;2022-07-29T14:29:08;27.50;99.90
17948;DHT22;9099;47.958;11.366;2022-07-29T14:31:34;27.40;99.90
17948;DHT22;9099;47.958;11.366;2022-07-29T14:34:01;27.50;99.90
17948;DHT22;9099;47.958;11.366;2022-07-29T14:36:28;27.60;99.90
17948;DHT22;9099;47.958;11.366;2022-07-29T14:38:55;27.40;99.90
17948;DHT22;9099;47.958;11.366;2022-07-29T14:41:23;27.40;99.90
17948;DHT22;9099;47.958;11.366;2022-07-29T14:43:50;27.50;99.90
17948;DHT22;9099;47.958;11.366;2022-07-29T14:46:18;27.50;99.90
17948;DHT22;9099;47.958;11.366;2022-07-29T14:48:45;27.40;99.90
17948;DHT22;9099;47.958;11.366;2022-07-29T14:51:12;27.40;99.90
17948;DHT22;9099;47.958;11.366;2022-07-29T14:53:39;27.40;99.90
17948;DHT22;9099;47.958;11.366;2022-07-29T14:56:06;27.40;99.90
17948;DHT22;9099;47.958;11.366;2022-07-29T14:58:34;27.50;99.90
17948;DHT22;9099;47.958;11.366;2022-07-29T15:01:01;27.70;99.90
17948;DHT22;9099;47.958;11.366;2022-07-29T15:03:28;27.90;99.90
17948;DHT22;9099;47.958;11.366;2022-07-29T15:05:55;27.70;99.90
17948;DHT22;9099;47.958;11.366;2022-07-29T15:08:22;27.70;99.90
17948;DHT22;9099;47.958;11.366;2022-07-29T15:10:51;27.50;99.90
17948;DHT22;9099;47.958;11.366;2022-07-29T15:13:17;27.30;99.90
17948;DHT22;9099;47.958;11.366;2022-07-29T15:15:46;27.10;99.90
17948;DHT22;9099;47.958;11.366;2022-07-29T15:18:13;26.90;99.90
17948;DHT22;9099;47.958;11.366;2022-07-29T15:20:39;26.70;99.90
17948;DHT22;9099;47.958;11.366;2022-07-29T15:23:06;26.60;99.90
17948;DHT22;9099;47.958;11.366;2022-07-29T15:25:35;26.60;99.90
17948;DHT22;9099;47.958;11.366;2022-07-29T15:28:02;26.50;99.90
17948;DHT22;9099;47.958;11.366;2022-07-29T15:30:33;26.40;99.90
17948;DHT22;9099;47.958;11.366;2022-07-29T15:33:03;26.30;99.90
17948;DHT22;9099;47.958;11.366;2022-07-29T15:35:29;26.20;99.90
17948;DHT22;9099;47.958;11.366;2022-07-29T15:37:56;26.20;99.90
17948;DHT22;9099;47.958;11.366;2022-07-29T15:40:23;26.10;99.90
17948;DHT22;9099;47.958;11.366;2022-07-29T15:42:50;26.00;99.90
17948;DHT22;9099;47.958;11.366;2022-07-29T15:45:17;25.80;99.90
17948;DHT22;9099;47.958;11.366;2022-07-29T15:47:44;25.80;99.90